Time;durP1;ratioP1;P1;durP2;ratioP2;P2;SDS_P1;SDS_P2;PMS_P1;PMS_P2;Temp;Humidity;BMP_temperature;BMP_pressure;BME280_temperature;BME280_humidity;BME280_pressure;Samples;Min_cycle;Max_cycle;Signal;HPM_P1;HPM_P2
2022/09/08 00:01:58;;;;;;;10.97;9.87;;;;;;;;;;5013908;28;20434;-67
2022/09/08 00:04:24;;;;;;;12.93;10.87;;;;;;;;;;5013723;28;20514;-66
2022/09/08 00:06:50;;;;;;;9.90;9.00;;;;;;;;;;5013773;28;20407;-67
2022/09/08 00:09:16;;;;;;;10.37;9.30;;;;;;;;;;5013773;28;20419;-66
2022/09/08 00:11:42;;;;;;;11.57;8.90;;;;;;;;;;5012471;28;20427;-66
2022/09/08 00:14:09;;;;;;;13.13;9.17;;;;;;;;;;5013658;28;20423;-67
2022/09/08 00:16:38;;;;;;;10.00;9.00;;;;;;;;;;5013680;28;20422;-67
2022/09/08 00:19:04;;;;;;;9.43;8.50;;;;;;;;;;5013644;28;20421;-66
2022/09/08 00:21:30;;;;;;;15.53;8.37;;;;;;;;;;5013665;28;20506;-67
2022/09/08 00:23:57;;;;;;;10.43;8.90;;;;;;;;;;5013519;28;20465;-67
2022/09/08 00:26:23;;;;;;;8.73;7.80;;;;;;;;;;5017851;28;20418;-67
2022/09/08 00:28:49;;;;;;;11.00;9.03;;;;;;;;;;5016325;28;20928;-66
2022/09/08 00:31:15;;;;;;;10.70;9.80;;;;;;;;;;5017467;28;20477;-67
2022/09/08 00:33:42;;;;;;;10.07;8.90;;;;;;;;;;5017552;28;20405;-66
2022/09/08 00:36:13;;;;;;;9.90;9.00;;;;;;;;;;5016211;28;20456;-66
2022/09/08 00:38:39;;;;;;;9.63;8.73;;;;;;;;;;5017457;28;20419;-66
2022/09/08 00:41:09;;;;;;;10.47;9.50;;;;;;;;;;5017300;28;20417;-67
2022/09/08 00:43:38;;;;;;;28.63;9.90;;;;;;;;;;5017325;28;20448;-66
2022/09/08 00:46:06;;;;;;;10.30;9.30;;;;;;;;;;5017223;28;20413;-66
2022/09/08 00:48:33;;;;;;;11.00;9.37;;;;;;;;;;5017179;28;20403;-65
2022/09/08 00:51:00;;;;;;;11.20;9.20;;;;;;;;;;5017078;28;20475;-66
2022/09/08 00:53:26;;;;;;;9.93;8.90;;;;;;;;;;5017147;28;20494;-66
2022/09/08 00:55:52;;;;;;;9.20;8.30;;;;;;;;;;5017175;28;20454;-66
2022/09/08 00:58:18;;;;;;;11.23;10.33;;;;;;;;;;5017186;28;20900;-66
2022/09/08 01:00:44;;;;;;;12.40;10.07;;;;;;;;;;5017120;28;20413;-66
2022/09/08 01:03:15;;;;;;;11.30;10.10;;;;;;;;;;5017026;28;20770;-65
2022/09/08 01:05:50;;;;;;;14.47;10.57;;;;;;;;;;5016839;28;20977;-66
2022/09/08 01:12:43;;;;;;;10.47;9.27;;;;;;;;;;5016924;28;20407;-65
2022/09/08 01:14:07;;;;;;;13.80;11.60;;;;;;;;;;5016683;28;20454;-65
2022/09/08 01:16:45;;;;;;;13.13;11.93;;;;;;;;;;5016787;28;20902;-66
2022/09/08 01:19:30;;;;;;;12.33;11.17;;;;;;;;;;5016597;28;20917;-66
2022/09/08 01:22:21;;;;;;;16.27;13.80;;;;;;;;;;5016701;28;20423;-66
2022/09/08 01:24:57;;;;;;;19.73;14.13;;;;;;;;;;5016780;28;20474;-67
2022/09/08 01:27:26;;;;;;;23.67;14.07;;;;;;;;;;5016519;28;20475;-66
2022/09/08 01:29:57;;;;;;;16.57;13.63;;;;;;;;;;5016516;28;20420;-66
2022/09/08 01:32:24;;;;;;;21.23;15.13;;;;;;;;;;5016432;28;20415;-65
2022/09/08 01:34:50;;;;;;;17.50;15.03;;;;;;;;;;5016366;28;20419;-66
2022/09/08 01:37:16;;;;;;;20.93;15.90;;;;;;;;;;5015159;28;20403;-66
2022/09/08 01:39:42;;;;;;;23.57;16.20;;;;;;;;;;5016232;28;20435;-66
2022/09/08 01:42:08;;;;;;;15.93;14.33;;;;;;;;;;5016243;28;20414;-65
2022/09/08 01:44:34;;;;;;;16.90;15.20;;;;;;;;;;5016038;28;20817;-66
2022/09/08 01:47:00;;;;;;;14.13;12.73;;;;;;;;;;5016183;28;20511;-65
2022/09/08 01:49:26;;;;;;;16.50;13.20;;;;;;;;;;5016153;28;20927;-66
2022/09/08 01:51:52;;;;;;;16.33;14.53;;;;;;;;;;5015926;28;21051;-65
2022/09/08 01:54:18;;;;;;;15.60;12.70;;;;;;;;;;4998300;28;20764;-65
2022/09/08 01:56:44;;;;;;;15.27;12.73;;;;;;;;;;5015977;28;20513;-65
2022/09/08 01:59:10;;;;;;;16.93;12.63;;;;;;;;;;5015883;28;20498;-65
2022/09/08 02:01:36;;;;;;;16.90;12.60;;;;;;;;;;5015970;28;20427;-66
2022/09/08 02:04:03;;;;;;;12.53;11.23;;;;;;;;;;4998556;28;20465;-65
2022/09/08 02:06:30;;;;;;;12.97;10.80;;;;;;;;;;5015828;28;20423;-65
2022/09/08 02:08:56;;;;;;;10.37;9.10;;;;;;;;;;4997962;28;20427;-65
2022/09/08 02:11:23;;;;;;;7.60;7.20;;;;;;;;;;5014345;28;20452;-65
2022/09/08 02:13:49;;;;;;;7.07;6.67;;;;;;;;;;5015651;28;20411;-66
2022/09/08 02:16:16;;;;;;;7.03;5.10;;;;;;;;;;5015554;28;20412;-66
2022/09/08 02:18:42;;;;;;;4.13;3.93;;;;;;;;;;5015635;28;20410;-65
2022/09/08 02:21:10;;;;;;;5.43;3.30;;;;;;;;;;5015564;28;20408;-65
2022/09/08 02:23:37;;;;;;;3.53;3.20;;;;;;;;;;5014106;28;20984;-65
2022/09/08 02:26:03;;;;;;;3.10;3.00;;;;;;;;;;5015370;28;20534;-65
2022/09/08 02:28:30;;;;;;;3.20;2.90;;;;;;;;;;5014102;28;20435;-65
2022/09/08 02:31:00;;;;;;;5.17;3.10;;;;;;;;;;5015377;28;20426;-66
2022/09/08 02:33:26;;;;;;;2.60;2.50;;;;;;;;;;5015226;28;20406;-66
2022/09/08 02:35:52;;;;;;;3.47;2.83;;;;;;;;;;5015260;28;20440;-65
2022/09/08 02:38:18;;;;;;;2.70;2.00;;;;;;;;;;5015132;28;20426;-66
2022/09/08 02:40:44;;;;;;;4.60;1.87;;;;;;;;;;5013832;28;20427;-65
2022/09/08 02:43:10;;;;;;;2.60;2.50;;;;;;;;;;5013855;28;20457;-66
2022/09/08 02:45:40;;;;;;;1.90;1.80;;;;;;;;;;5013716;28;20482;-66
2022/09/08 02:48:06;;;;;;;1.70;1.70;;;;;;;;;;5014738;28;20918;-65
2022/09/08 02:50:32;;;;;;;1.57;1.47;;;;;;;;;;5014667;28;20461;-65
2022/09/08 02:52:58;;;;;;;4.67;1.97;;;;;;;;;;5014939;28;20418;-66
2022/09/08 02:55:24;;;;;;;1.47;1.37;;;;;;;;;;5014929;28;20393;-66
2022/09/08 02:57:51;;;;;;;1.20;1.17;;;;;;;;;;5014775;28;20741;-65
2022/09/08 03:00:17;;;;;;;1.10;1.10;;;;;;;;;;5014732;28;20407;-66
2022/09/08 03:02:43;;;;;;;1.80;1.53;;;;;;;;;;5014760;28;20480;-65
2022/09/08 03:05:10;;;;;;;3.13;1.60;;;;;;;;;;5013349;28;20571;-67
2022/09/08 03:07:39;;;;;;;1.40;1.40;;;;;;;;;;5014713;28;20410;-65
2022/09/08 03:10:06;;;;;;;4.77;1.20;;;;;;;;;;5014533;28;20465;-66
2022/09/08 03:12:32;;;;;;;5.13;1.60;;;;;;;;;;5014685;28;20418;-66
2022/09/08 03:14:58;;;;;;;1.33;1.33;;;;;;;;;;5014516;28;20438;-66
2022/09/08 03:17:24;;;;;;;1.60;1.50;;;;;;;;;;5013224;28;20506;-65
2022/09/08 03:19:53;;;;;;;2.87;1.40;;;;;;;;;;5014482;28;20428;-65
2022/09/08 03:22:19;;;;;;;1.70;1.60;;;;;;;;;;5014438;28;20409;-66
2022/09/08 03:24:45;;;;;;;2.00;1.30;;;;;;;;;;5014295;28;20965;-66
2022/09/08 03:27:11;;;;;;;2.23;1.60;;;;;;;;;;5013084;28;20769;-66
2022/09/08 03:29:37;;;;;;;1.60;1.50;;;;;;;;;;5013094;28;20508;-68
2022/09/08 03:32:03;;;;;;;2.43;1.60;;;;;;;;;;5014315;28;20412;-68
2022/09/08 03:34:29;;;;;;;2.17;1.50;;;;;;;;;;5014297;28;20417;-68
2022/09/08 03:36:55;;;;;;;2.50;1.77;;;;;;;;;;5013058;28;20426;-68
2022/09/08 03:39:21;;;;;;;7.43;1.60;;;;;;;;;;5014215;28;20458;-69
2022/09/08 03:41:47;;;;;;;4.50;1.90;;;;;;;;;;5014221;28;20503;-68
2022/09/08 03:44:13;;;;;;;2.23;1.83;;;;;;;;;;5014015;28;20469;-68
2022/09/08 03:46:39;;;;;;;1.87;1.53;;;;;;;;;;5014077;28;20409;-68
2022/09/08 03:49:05;;;;;;;3.77;1.73;;;;;;;;;;5014021;28;20394;-69
2022/09/08 03:51:31;;;;;;;4.40;1.80;;;;;;;;;;5012538;28;21028;-68
2022/09/08 03:54:47;;;;;;;6.63;2.20;;;;;;;;;;5013985;28;20503;-69
2022/09/08 03:56:45;;;;;;;4.00;1.47;;;;;;;;;;5013758;28;20425;-69
2022/09/08 03:59:11;;;;;;;2.20;1.70;;;;;;;;;;5013207;28;20897;-69
2022/09/08 04:01:38;;;;;;;2.97;1.87;;;;;;;;;;5013875;28;20406;-69
2022/09/08 04:04:04;;;;;;;3.13;2.00;;;;;;;;;;5014019;28;20472;-70
2022/09/08 04:06:30;;;;;;;1.93;1.83;;;;;;;;;;5013751;28;20426;-69
2022/09/08 04:08:56;;;;;;;4.20;1.80;;;;;;;;;;5013659;28;20429;-69
2022/09/08 04:11:23;;;;;;;2.83;1.70;;;;;;;;;;5012459;28;20474;-68
2022/09/08 04:13:50;;;;;;;1.60;1.50;;;;;;;;;;5013709;28;20912;-68
2022/09/08 04:16:16;;;;;;;1.60;1.60;;;;;;;;;;5013705;28;20524;-68
2022/09/08 04:18:43;;;;;;;2.63;1.90;;;;;;;;;;5013718;28;20536;-68
2022/09/08 04:21:10;;;;;;;5.93;1.90;;;;;;;;;;5013643;28;20406;-68
2022/09/08 04:23:37;;;;;;;2.87;1.80;;;;;;;;;;5013434;28;20520;-69
2022/09/08 04:26:04;;;;;;;2.63;1.30;;;;;;;;;;5012295;28;20434;-68
2022/09/08 04:28:30;;;;;;;3.70;2.97;;;;;;;;;;5013495;28;20416;-68
2022/09/08 04:30:56;;;;;;;2.83;1.37;;;;;;;;;;5013565;28;20406;-69
2022/09/08 04:33:22;;;;;;;1.67;1.57;;;;;;;;;;5012232;28;20572;-68
2022/09/08 04:35:48;;;;;;;1.67;1.53;;;;;;;;;;5012243;28;20418;-68
2022/09/08 04:38:14;;;;;;;1.50;1.33;;;;;;;;;;5013446;28;20788;-68
2022/09/08 04:40:41;;;;;;;1.53;1.43;;;;;;;;;;5013514;28;20408;-68
2022/09/08 04:43:07;;;;;;;1.93;1.53;;;;;;;;;;5013428;28;20421;-69
2022/09/08 04:45:33;;;;;;;1.77;1.67;;;;;;;;;;5013345;28;20839;-68
2022/09/08 04:47:59;;;;;;;1.90;1.90;;;;;;;;;;5013417;28;20408;-68
2022/09/08 04:50:25;;;;;;;2.17;2.07;;;;;;;;;;5013202;28;20409;-69
2022/09/08 04:52:51;;;;;;;2.60;1.63;;;;;;;;;;5013283;28;20437;-68
2022/09/08 04:55:17;;;;;;;1.40;1.20;;;;;;;;;;5013249;28;20412;-68
2022/09/08 04:57:43;;;;;;;1.77;1.67;;;;;;;;;;5013225;28;20410;-69
2022/09/08 05:00:12;;;;;;;1.63;1.53;;;;;;;;;;5013338;28;20461;-67
2022/09/08 05:02:38;;;;;;;1.87;1.67;;;;;;;;;;5013160;28;20430;-66
2022/09/08 05:05:04;;;;;;;1.70;1.57;;;;;;;;;;5013127;28;20476;-68
2022/09/08 05:07:30;;;;;;;2.50;1.50;;;;;;;;;;5013135;28;20415;-68
2022/09/08 05:09:56;;;;;;;1.53;1.53;;;;;;;;;;5013133;28;20417;-66
2022/09/08 05:12:22;;;;;;;1.77;1.50;;;;;;;;;;5016912;28;20401;-66
2022/09/08 05:14:48;;;;;;;4.83;1.53;;;;;;;;;;5016872;28;20459;-67
2022/09/08 05:17:14;;;;;;;1.40;1.40;;;;;;;;;;5016745;28;20405;-68
2022/09/08 05:19:40;;;;;;;1.87;1.77;;;;;;;;;;5016829;28;20440;-67
2022/09/08 05:22:06;;;;;;;1.73;1.60;;;;;;;;;;5016790;28;20911;-67
2022/09/08 05:24:31;;;;;;;3.97;1.40;;;;;;;;;;5016390;28;20477;-68
2022/09/08 05:26:57;;;;;;;1.43;1.43;;;;;;;;;;5016606;28;20406;-67
2022/09/08 05:29:23;;;;;;;7.90;1.60;;;;;;;;;;5016474;28;20420;-67
2022/09/08 05:31:49;;;;;;;1.53;1.43;;;;;;;;;;5016524;28;20496;-68
2022/09/08 05:34:15;;;;;;;1.80;1.70;;;;;;;;;;5016415;28;20420;-67
2022/09/08 05:36:41;;;;;;;3.27;1.70;;;;;;;;;;5016392;28;20417;-66
2022/09/08 05:39:08;;;;;;;4.23;1.83;;;;;;;;;;5016261;28;20436;-67
2022/09/08 05:41:34;;;;;;;1.43;1.43;;;;;;;;;;5016182;28;20413;-67
2022/09/08 05:44:01;;;;;;;3.80;1.70;;;;;;;;;;5014836;28;20836;-67
2022/09/08 05:46:27;;;;;;;5.03;1.60;;;;;;;;;;5016236;28;20423;-68
2022/09/08 05:48:54;;;;;;;1.50;1.40;;;;;;;;;;5016341;28;20408;-66
2022/09/08 05:51:20;;;;;;;1.70;1.60;;;;;;;;;;5015905;28;20554;-67
2022/09/08 05:53:46;;;;;;;1.70;1.70;;;;;;;;;;5015983;28;20421;-68
2022/09/08 05:56:13;;;;;;;1.40;1.40;;;;;;;;;;5016009;28;20425;-69
2022/09/08 05:58:39;;;;;;;1.87;1.77;;;;;;;;;;5015968;28;20892;-68
2022/09/08 06:01:07;;;;;;;2.40;1.70;;;;;;;;;;5014647;28;20448;-67
2022/09/08 06:03:33;;;;;;;3.03;1.87;;;;;;;;;;5014943;28;20432;-67
2022/09/08 06:06:04;;;;;;;1.73;1.63;;;;;;;;;;5015692;28;20518;-68
2022/09/08 06:08:30;;;;;;;2.13;1.93;;;;;;;;;;5015720;28;20433;-68
2022/09/08 06:10:56;;;;;;;2.23;1.80;;;;;;;;;;5015718;28;20452;-67
2022/09/08 06:13:22;;;;;;;1.70;1.63;;;;;;;;;;5015668;28;20417;-68
2022/09/08 06:15:49;;;;;;;2.60;1.97;;;;;;;;;;5015679;28;20456;-67
2022/09/08 06:18:15;;;;;;;2.20;1.60;;;;;;;;;;5014260;28;20850;-67
2022/09/08 06:20:41;;;;;;;5.90;1.77;;;;;;;;;;5015514;28;20452;-68
2022/09/08 06:23:07;;;;;;;3.20;2.33;;;;;;;;;;5013587;28;20524;-67
2022/09/08 06:25:38;;;;;;;2.27;1.63;;;;;;;;;;5015377;28;20472;-68
2022/09/08 06:28:10;;;;;;;1.90;1.67;;;;;;;;;;5015323;28;20506;-69
2022/09/08 06:30:37;;;;;;;2.10;2.00;;;;;;;;;;5014424;28;20441;-68
2022/09/08 06:33:07;;;;;;;1.63;1.63;;;;;;;;;;5015408;28;20586;-66
2022/09/08 06:35:34;;;;;;;1.63;1.63;;;;;;;;;;5015229;28;20433;-68
2022/09/08 06:38:02;;;;;;;8.03;2.07;;;;;;;;;;5015219;28;20463;-68
2022/09/08 06:40:28;;;;;;;2.10;1.90;;;;;;;;;;5013939;28;20435;-69
2022/09/08 06:43:01;;;;;;;2.83;1.70;;;;;;;;;;5015185;28;20401;-69
2022/09/08 06:45:29;;;;;;;2.57;1.90;;;;;;;;;;5015060;28;20516;-67
2022/09/08 06:48:00;;;;;;;2.70;1.60;;;;;;;;;;5015044;28;20536;-68
2022/09/08 06:50:26;;;;;;;8.43;2.10;;;;;;;;;;5014734;28;20406;-68
2022/09/08 06:52:54;;;;;;;2.87;1.93;;;;;;;;;;5014873;28;20412;-66
2022/09/08 06:55:32;;;;;;;1.70;1.60;;;;;;;;;;5014907;28;20391;-67
2022/09/08 06:58:12;;;;;;;4.73;2.47;;;;;;;;;;5014925;28;20947;-67
2022/09/08 07:00:48;;;;;;;8.60;2.00;;;;;;;;;;5014832;28;20413;-67
2022/09/08 07:03:17;;;;;;;3.60;1.53;;;;;;;;;;5014762;28;20417;-67
2022/09/08 07:05:54;;;;;;;2.03;1.93;;;;;;;;;;5014604;28;20520;-66
2022/09/08 07:08:20;;;;;;;11.83;2.00;;;;;;;;;;5014533;28;20414;-71
2022/09/08 07:10:48;;;;;;;4.90;2.80;;;;;;;;;;5014583;28;20466;-70
2022/09/08 07:13:23;;;;;;;1.90;1.80;;;;;;;;;;5014865;28;20820;-68
2022/09/08 07:16:03;;;;;;;2.03;1.90;;;;;;;;;;5013307;28;20479;-68
2022/09/08 07:18:33;;;;;;;6.97;1.93;;;;;;;;;;5014483;28;20923;-68
2022/09/08 07:21:14;;;;;;;9.00;2.30;;;;;;;;;;5014462;28;20417;-66
2022/09/08 07:23:41;;;;;;;2.27;2.10;;;;;;;;;;5014327;28;20456;-68
2022/09/08 07:26:08;;;;;;;2.50;1.80;;;;;;;;;;5014302;28;20508;-66
2022/09/08 07:28:40;;;;;;;2.27;2.07;;;;;;;;;;5014351;28;20814;-66
2022/09/08 07:31:14;;;;;;;2.33;1.63;;;;;;;;;;5014261;28;20507;-65
2022/09/08 07:33:42;;;;;;;5.47;2.20;;;;;;;;;;5013617;28;20420;-68
2022/09/08 07:36:26;;;;;;;2.57;2.00;;;;;;;;;;5013985;28;20410;-67
2022/09/08 07:38:53;;;;;;;1.70;1.60;;;;;;;;;;5014190;28;20861;-67
2022/09/08 07:41:21;;;;;;;2.17;1.60;;;;;;;;;;5012862;28;20456;-68
2022/09/08 07:43:49;;;;;;;1.53;1.53;;;;;;;;;;5013973;28;20417;-68
2022/09/08 07:46:47;;;;;;;2.40;1.40;;;;;;;;;;5014297;28;20430;-66
2022/09/08 07:49:29;;;;;;;1.70;1.40;;;;;;;;;;4960702;28;20442;-69
2022/09/08 07:52:07;;;;;;;2.73;1.77;;;;;;;;;;5014102;28;20479;-66
2022/09/08 07:54:43;;;;;;;9.57;1.67;;;;;;;;;;5013816;28;20479;-68
2022/09/08 07:57:18;;;;;;;4.13;1.70;;;;;;;;;;5013927;28;20412;-66
2022/09/08 08:00:06;;;;;;;4.57;1.57;;;;;;;;;;5012653;28;20910;-67
2022/09/08 08:02:51;;;;;;;3.73;1.43;;;;;;;;;;4995891;28;20793;-67
2022/09/08 08:05:47;;;;;;;1.53;1.10;;;;;;;;;;5013661;28;20522;-67
2022/09/08 08:08:13;;;;;;;3.00;1.53;;;;;;;;;;4993347;28;20437;-68
2022/09/08 08:10:48;;;;;;;2.60;1.30;;;;;;;;;;5013552;28;20417;-68
2022/09/08 08:13:24;;;;;;;5.03;1.20;;;;;;;;;;5013586;28;20443;-67
2022/09/08 08:16:02;;;;;;;3.80;1.10;;;;;;;;;;5013593;28;20406;-67
2022/09/08 08:18:41;;;;;;;4.13;1.10;;;;;;;;;;5012414;28;20435;-68
2022/09/08 08:21:10;;;;;;;1.30;1.20;;;;;;;;;;5012320;28;20435;-67
2022/09/08 08:23:43;;;;;;;1.87;1.30;;;;;;;;;;5013357;28;20433;-67
2022/09/08 08:26:10;;;;;;;7.30;1.30;;;;;;;;;;5013576;28;20417;-67
2022/09/08 08:28:40;;;;;;;2.80;1.20;;;;;;;;;;5013544;28;20404;-68
2022/09/08 08:31:28;;;;;;;3.30;1.00;;;;;;;;;;5013427;28;20845;-68
2022/09/08 08:33:58;;;;;;;1.00;1.00;;;;;;;;;;5013575;28;20497;-69
2022/09/08 08:36:25;;;;;;;2.13;1.00;;;;;;;;;;5012249;28;20786;-70
2022/09/08 08:39:00;;;;;;;0.90;0.90;;;;;;;;;;5013440;28;20415;-69
2022/09/08 08:41:34;;;;;;;4.53;1.20;;;;;;;;;;5013415;28;20406;-69
2022/09/08 08:44:10;;;;;;;1.70;1.03;;;;;;;;;;5012087;28;20466;-70
2022/09/08 08:46:55;;;;;;;1.30;1.00;;;;;;;;;;5016079;28;20913;-69
2022/09/08 08:49:39;;;;;;;0.83;0.83;;;;;;;;;;5017226;28;20454;-70
2022/09/08 08:52:24;;;;;;;2.37;1.10;;;;;;;;;;5017056;28;20460;-69
2022/09/08 08:55:02;;;;;;;1.20;1.10;;;;;;;;;;5017390;28;20416;-68
2022/09/08 08:57:51;;;;;;;3.27;0.93;;;;;;;;;;5017319;28;20533;-70
2022/09/08 09:00:18;;;;;;;5.30;0.93;;;;;;;;;;5017107;28;20514;-67
2022/09/08 09:02:52;;;;;;;1.00;0.80;;;;;;;;;;5017025;28;20404;-66
2022/09/08 09:05:38;;;;;;;2.77;1.00;;;;;;;;;;5016937;28;20526;-69
2022/09/08 09:08:24;;;;;;;2.10;1.23;;;;;;;;;;5016753;28;20445;-69
2022/09/08 09:11:08;;;;;;;1.30;1.20;;;;;;;;;;5016935;28;20409;-69
2022/09/08 09:13:45;;;;;;;3.03;1.20;;;;;;;;;;5016746;28;20406;-68
2022/09/08 09:16:20;;;;;;;2.40;0.83;;;;;;;;;;5016669;28;20783;-68
2022/09/08 09:19:01;;;;;;;2.13;0.73;;;;;;;;;;5016796;28;20905;-68
2022/09/08 09:21:46;;;;;;;9.17;3.80;;;;;;;;;;5016639;28;20414;-68
2022/09/08 09:24:20;;;;;;;2.07;0.80;;;;;;;;;;5016488;28;20529;-69
2022/09/08 09:26:50;;;;;;;1.53;1.10;;;;;;;;;;5016388;28;20423;-68
2022/09/08 09:29:21;;;;;;;1.37;0.80;;;;;;;;;;5016311;28;20410;-67
2022/09/08 09:32:01;;;;;;;2.50;0.97;;;;;;;;;;5016502;28;20835;-66
2022/09/08 09:34:35;;;;;;;2.30;1.00;;;;;;;;;;5016419;28;20426;-69
2022/09/08 09:37:02;;;;;;;4.50;1.60;;;;;;;;;;5015146;28;20435;-67
2022/09/08 09:39:37;;;;;;;2.50;1.17;;;;;;;;;;5015123;28;20424;-69
2022/09/08 09:42:13;;;;;;;1.77;1.07;;;;;;;;;;5016334;28;20822;-67
2022/09/08 09:44:57;;;;;;;1.70;1.20;;;;;;;;;;5016211;28;20470;-69
2022/09/08 09:47:40;;;;;;;1.30;0.77;;;;;;;;;;5016238;28;20499;-68
2022/09/08 09:50:29;;;;;;;2.70;1.20;;;;;;;;;;5016199;28;20896;-67
2022/09/08 09:52:59;;;;;;;16.63;1.47;;;;;;;;;;5016079;28;20873;-67
2022/09/08 09:55:25;;;;;;;1.53;1.03;;;;;;;;;;5014764;28;20933;-67
2022/09/08 09:57:50;;;;;;;4.57;1.13;;;;;;;;;;5015084;28;20499;-67
2022/09/08 10:00:22;;;;;;;2.40;1.10;;;;;;;;;;5015951;28;20847;-66
2022/09/08 10:03:00;;;;;;;2.10;1.27;;;;;;;;;;5015951;28;20483;-67
2022/09/08 10:05:45;;;;;;;2.67;1.17;;;;;;;;;;5015743;28;20571;-67
2022/09/08 10:08:11;;;;;;;1.13;0.87;;;;;;;;;;5015757;28;20470;-68
2022/09/08 10:10:40;;;;;;;1.23;1.13;;;;;;;;;;5015835;28;20405;-67
2022/09/08 10:13:24;;;;;;;2.10;0.90;;;;;;;;;;5015691;28;20498;-68
2022/09/08 10:16:09;;;;;;;11.23;1.40;;;;;;;;;;5015714;28;20393;-67
2022/09/08 10:18:45;;;;;;;4.97;1.30;;;;;;;;;;5015605;28;20408;-66
2022/09/08 10:21:11;;;;;;;5.00;1.27;;;;;;;;;;5015711;28;20766;-67
2022/09/08 10:23:56;;;;;;;3.43;1.40;;;;;;;;;;5015293;28;20431;-67
2022/09/08 10:26:37;;;;;;;3.90;1.10;;;;;;;;;;5015263;28;20582;-68
2022/09/08 10:29:16;;;;;;;5.30;1.00;;;;;;;;;;5015312;28;20414;-69
2022/09/08 10:32:00;;;;;;;2.60;1.67;;;;;;;;;;5015375;28;20419;-68
2022/09/08 10:34:41;;;;;;;1.77;1.10;;;;;;;;;;5014929;28;20405;-67
2022/09/08 10:37:17;;;;;;;3.00;1.13;;;;;;;;;;5013787;28;20439;-65
2022/09/08 10:40:04;;;;;;;13.37;1.77;;;;;;;;;;5014619;28;20423;-66
2022/09/08 10:42:39;;;;;;;2.50;1.10;;;;;;;;;;5013400;28;20408;-70
2022/09/08 10:45:33;;;;;;;5.07;1.63;;;;;;;;;;5013375;28;20483;-67
2022/09/08 10:48:02;;;;;;;6.07;1.70;;;;;;;;;;5013822;28;20467;-68
2022/09/08 10:50:29;;;;;;;1.90;1.30;;;;;;;;;;5014623;28;20412;-67
2022/09/08 10:53:04;;;;;;;4.47;1.40;;;;;;;;;;5013270;28;20443;-69
2022/09/08 10:55:49;;;;;;;2.53;1.10;;;;;;;;;;5014394;28;20414;-68
2022/09/08 10:58:18;;;;;;;1.63;1.23;;;;;;;;;;5013345;28;20481;-68
2022/09/08 11:01:02;;;;;;;1.20;1.20;;;;;;;;;;5014076;28;20788;-68
2022/09/08 11:03:28;;;;;;;4.23;1.47;;;;;;;;;;5014692;28;20476;-66
2022/09/08 11:06:08;;;;;;;3.43;0.97;;;;;;;;;;5014378;28;20477;-70
2022/09/08 11:08:55;;;;;;;2.93;1.20;;;;;;;;;;5014225;28;20704;-67
2022/09/08 11:11:46;;;;;;;6.43;1.60;;;;;;;;;;5014602;28;20412;-69
2022/09/08 11:14:31;;;;;;;2.33;1.53;;;;;;;;;;5014648;28;20426;-72
2022/09/08 11:16:56;;;;;;;3.33;1.40;;;;;;;;;;5014450;28;20429;-71
2022/09/08 11:19:35;;;;;;;1.67;1.10;;;;;;;;;;5014533;28;20451;-68
2022/09/08 11:22:19;;;;;;;3.80;1.40;;;;;;;;;;5014474;28;20218;-67
2022/09/08 11:25:03;;;;;;;4.90;1.60;;;;;;;;;;5014283;28;20471;-70
2022/09/08 11:27:33;;;;;;;4.63;1.70;;;;;;;;;;5014315;28;20405;-72
2022/09/08 11:30:13;;;;;;;3.50;1.47;;;;;;;;;;5014340;28;20423;-71
2022/09/08 11:32:46;;;;;;;1.80;1.70;;;;;;;;;;5014251;28;20460;-69
2022/09/08 11:35:22;;;;;;;3.43;1.13;;;;;;;;;;5012884;28;20412;-71
2022/09/08 11:37:54;;;;;;;3.27;1.20;;;;;;;;;;5014234;28;20452;-70
2022/09/08 11:40:38;;;;;;;0.80;0.80;;;;;;;;;;5014066;28;20421;-70
2022/09/08 11:43:04;;;;;;;3.93;1.30;;;;;;;;;;5014099;28;20787;-70
2022/09/08 11:45:48;;;;;;;5.53;1.27;;;;;;;;;;5014053;28;20474;-71
2022/09/08 11:48:30;;;;;;;2.40;1.07;;;;;;;;;;5014044;28;20623;-73
2022/09/08 11:50:59;;;;;;;4.20;1.10;;;;;;;;;;5012515;28;20895;-73
2022/09/08 11:53:45;;;;;;;1.77;1.10;;;;;;;;;;5012654;28;20985;-71
2022/09/08 11:56:30;;;;;;;3.53;2.20;;;;;;;;;;4997275;28;20516;-70
2022/09/08 11:59:18;;;;;;;1.27;0.80;;;;;;;;;;5012578;28;20415;-70
2022/09/08 12:02:02;;;;;;;5.53;1.17;;;;;;;;;;5013857;28;20451;-71
2022/09/08 12:04:54;;;;;;;8.63;0.97;;;;;;;;;;5013801;28;20518;-70
2022/09/08 12:07:32;;;;;;;7.87;1.63;;;;;;;;;;4991890;28;20427;-71
2022/09/08 12:10:24;;;;;;;5.07;1.40;;;;;;;;;;5013678;28;20468;-71
2022/09/08 12:12:56;;;;;;;2.47;1.17;;;;;;;;;;4976665;28;20433;-71
2022/09/08 12:15:22;;;;;;;3.13;1.13;;;;;;;;;;5013725;28;20409;-70
2022/09/08 12:18:05;;;;;;;3.60;1.10;;;;;;;;;;5013575;28;20419;-71
2022/09/08 12:21:00;;;;;;;4.70;1.50;;;;;;;;;;5013091;28;20179;-70
2022/09/08 12:23:42;;;;;;;1.43;0.90;;;;;;;;;;4992732;28;20474;-70
2022/09/08 12:26:27;;;;;;;3.77;1.17;;;;;;;;;;5013503;28;20470;-70
2022/09/08 12:28:53;;;;;;;2.00;1.00;;;;;;;;;;5013622;28;20436;-69
2022/09/08 12:31:24;;;;;;;4.57;1.20;;;;;;;;;;5013528;28;20412;-69
2022/09/08 12:34:16;;;;;;;3.23;1.07;;;;;;;;;;5013530;28;20412;-68
2022/09/08 12:36:44;;;;;;;1.57;0.90;;;;;;;;;;5013481;28;20434;-71
2022/09/08 12:39:10;;;;;;;0.90;0.90;;;;;;;;;;5013522;28;20473;-71
2022/09/08 12:41:55;;;;;;;2.57;1.00;;;;;;;;;;5013545;28;20406;-70
2022/09/08 12:44:33;;;;;;;2.50;1.30;;;;;;;;;;5013493;28;20463;-71
2022/09/08 12:47:09;;;;;;;2.83;1.20;;;;;;;;;;5012217;28;20507;-71
2022/09/08 12:49:44;;;;;;;5.23;0.97;;;;;;;;;;5013429;28;20409;-71
2022/09/08 12:52:19;;;;;;;1.13;1.00;;;;;;;;;;5013301;28;20500;-70
2022/09/08 12:54:58;;;;;;;5.60;1.17;;;;;;;;;;5013225;28;20416;-72
2022/09/08 12:57:41;;;;;;;0.70;0.70;;;;;;;;;;5013252;28;20417;-71
2022/09/08 13:00:19;;;;;;;6.60;1.20;;;;;;;;;;5013317;28;20402;-70
2022/09/08 13:03:04;;;;;;;1.97;0.90;;;;;;;;;;5013254;28;20397;-71
2022/09/08 13:05:33;;;;;;;1.23;1.13;;;;;;;;;;5013499;28;20476;-70
2022/09/08 13:07:59;;;;;;;3.03;1.10;;;;;;;;;;5013244;28;20406;-71
2022/09/08 13:10:29;;;;;;;1.30;1.17;;;;;;;;;;5013215;28;20457;-70
2022/09/08 13:13:07;;;;;;;1.57;1.07;;;;;;;;;;5013205;28;20194;-71
2022/09/08 13:15:43;;;;;;;2.90;1.17;;;;;;;;;;5013196;28;20413;-72
2022/09/08 13:18:09;;;;;;;5.00;1.17;;;;;;;;;;5011889;28;20436;-71
2022/09/08 13:20:40;;;;;;;1.53;1.40;;;;;;;;;;5013147;28;20512;-68
2022/09/08 13:23:18;;;;;;;2.63;1.27;;;;;;;;;;5013050;28;20431;-71
2022/09/08 13:25:53;;;;;;;1.57;1.07;;;;;;;;;;5013080;28;20480;-70
2022/09/08 13:28:28;;;;;;;3.90;1.13;;;;;;;;;;5012891;28;20409;-69
2022/09/08 13:31:04;;;;;;;4.33;1.20;;;;;;;;;;5013150;28;20413;-71
2022/09/08 13:33:36;;;;;;;3.97;3.60;;;;;;;;;;5015496;28;20429;-70
2022/09/08 13:36:21;;;;;;;2.63;1.20;;;;;;;;;;5016532;28;20492;-68
2022/09/08 13:38:56;;;;;;;3.60;0.73;;;;;;;;;;5016464;28;20471;-71
2022/09/08 13:41:42;;;;;;;1.37;1.10;;;;;;;;;;5016426;28;20410;-72
2022/09/08 13:44:23;;;;;;;1.37;0.90;;;;;;;;;;5016124;28;20435;-72
2022/09/08 13:46:55;;;;;;;3.33;1.10;;;;;;;;;;5016308;28;20507;-72
2022/09/08 13:49:33;;;;;;;5.87;0.80;;;;;;;;;;5016388;28;20432;-71
2022/09/08 13:52:09;;;;;;;2.63;1.50;;;;;;;;;;5016111;28;20476;-70
2022/09/08 13:54:49;;;;;;;3.50;0.97;;;;;;;;;;5014837;28;20418;-73
2022/09/08 13:57:15;;;;;;;1.63;1.10;;;;;;;;;;5016130;28;20550;-72
2022/09/08 13:59:54;;;;;;;1.57;0.90;;;;;;;;;;5014832;28;20875;-72
2022/09/08 14:02:39;;;;;;;2.07;0.90;;;;;;;;;;5014517;28;20508;-73
2022/09/08 14:05:13;;;;;;;2.87;0.90;;;;;;;;;;5015832;28;20479;-71
2022/09/08 14:07:43;;;;;;;2.80;1.00;;;;;;;;;;5015849;28;20901;-71
2022/09/08 14:10:32;;;;;;;1.43;1.10;;;;;;;;;;5015763;28;20451;-71
2022/09/08 14:13:21;;;;;;;2.53;0.93;;;;;;;;;;5003033;28;20785;-76
2022/09/08 14:15:53;;;;;;;7.50;1.00;;;;;;;;;;5003045;28;20439;-72
2022/09/08 14:18:22;;;;;;;1.17;0.90;;;;;;;;;;5015678;28;20428;-71
2022/09/08 14:20:54;;;;;;;4.30;1.93;;;;;;;;;;5015929;28;20454;-72
2022/09/08 14:23:39;;;;;;;2.63;0.80;;;;;;;;;;5015499;28;20397;-70
2022/09/08 14:26:18;;;;;;;2.10;1.17;;;;;;;;;;5014138;28;20481;-70
2022/09/08 14:29:07;;;;;;;3.07;0.73;;;;;;;;;;5014250;28;20420;-73
2022/09/08 14:31:33;;;;;;;2.63;1.20;;;;;;;;;;5002929;28;20425;-72
2022/09/08 14:34:14;;;;;;;1.07;0.77;;;;;;;;;;5014142;28;20428;-72
2022/09/08 14:37:01;;;;;;;7.30;1.03;;;;;;;;;;5015404;28;20649;-72
2022/09/08 14:39:33;;;;;;;1.60;1.00;;;;;;;;;;5013945;28;20424;-72
2022/09/08 14:42:13;;;;;;;3.43;1.23;;;;;;;;;;5015213;28;20755;-71
2022/09/08 14:44:53;;;;;;;1.63;0.83;;;;;;;;;;5014484;28;20475;-72
2022/09/08 14:47:26;;;;;;;1.90;1.10;;;;;;;;;;5015028;28;20971;-73
2022/09/08 14:50:11;;;;;;;0.80;0.80;;;;;;;;;;5015104;28;20551;-72
2022/09/08 14:52:50;;;;;;;2.40;1.07;;;;;;;;;;5014868;28;20467;-73
2022/09/08 14:55:19;;;;;;;2.20;1.33;;;;;;;;;;5014871;28;20518;-73
2022/09/08 14:57:49;;;;;;;1.57;1.00;;;;;;;;;;5014884;28;20830;-72
2022/09/08 15:00:19;;;;;;;1.47;1.10;;;;;;;;;;5014817;28;20850;-74
2022/09/08 15:02:48;;;;;;;4.97;1.10;;;;;;;;;;5014836;28;20402;-73
2022/09/08 15:05:14;;;;;;;2.10;1.27;;;;;;;;;;5014784;28;20468;-72
2022/09/08 15:07:55;;;;;;;2.43;1.30;;;;;;;;;;5014745;28;20467;-71
2022/09/08 15:10:31;;;;;;;1.10;1.00;;;;;;;;;;5014640;28;20420;-72
2022/09/08 15:13:17;;;;;;;2.20;1.23;;;;;;;;;;5014589;28;20479;-74
2022/09/08 15:15:44;;;;;;;1.83;1.10;;;;;;;;;;5013393;28;20432;-72